createdAt,value
2019-02-16T00:00:20.122Z,99.90
2019-02-16T00:02:50.817Z,99.90
2019-02-16T00:05:23.194Z,99.90
2019-02-16T00:07:56.329Z,99.90
2019-02-16T00:10:26.544Z,99.90
2019-02-16T00:12:59.021Z,99.90
2019-02-16T00:15:29.397Z,99.90
2019-02-16T00:18:00.018Z,99.90
2019-02-16T00:20:32.604Z,99.90
2019-02-16T00:23:02.770Z,99.90
2019-02-16T00:25:33.044Z,99.90
2019-02-16T00:28:03.726Z,99.90
2019-02-16T00:30:38.062Z,99.90
2019-02-16T00:33:08.677Z,99.90
2019-02-16T00:35:39.267Z,99.90
2019-02-16T00:38:09.489Z,99.90
2019-02-16T00:40:39.797Z,99.90
2019-02-16T00:43:12.967Z,99.90
2019-02-16T00:45:43.528Z,99.90
2019-02-16T00:48:14.106Z,99.90
2019-02-16T00:50:48.637Z,99.90
2019-02-16T00:53:22.026Z,99.90
2019-02-16T00:55:52.374Z,99.90
2019-02-16T00:58:23.230Z,99.90
2019-02-16T01:00:53.695Z,99.90
2019-02-16T01:03:24.115Z,99.90
2019-02-16T01:05:54.384Z,99.90
2019-02-16T01:08:24.694Z,99.90
2019-02-16T01:10:55.246Z,99.90
2019-02-16T01:13:25.614Z,99.90
2019-02-16T01:15:56.759Z,99.90
2019-02-16T01:18:27.004Z,99.90
2019-02-16T01:20:57.642Z,99.90
2019-02-16T01:23:27.766Z,99.90
2019-02-16T01:26:00.862Z,99.90
2019-02-16T01:28:31.135Z,99.90
2019-02-16T01:31:01.442Z,99.90
2019-02-16T01:33:32.137Z,99.90
2019-02-16T01:36:02.673Z,99.90
2019-02-16T01:38:32.807Z,99.90
2019-02-16T01:41:03.033Z,99.90
2019-02-16T01:43:33.213Z,99.90
2019-02-16T01:46:03.388Z,99.90
2019-02-16T01:48:34.362Z,99.90
2019-02-16T01:51:05.053Z,99.90
2019-02-16T01:53:35.153Z,99.90
2019-02-16T01:56:05.816Z,99.90
2019-02-16T01:58:36.348Z,99.90
2019-02-16T02:01:09.942Z,99.90
2019-02-16T02:03:40.618Z,99.90
2019-02-16T02:06:10.942Z,99.90
2019-02-16T02:08:41.361Z,99.90
2019-02-16T02:11:11.549Z,99.90
2019-02-16T02:13:42.942Z,99.90
2019-02-16T02:16:13.507Z,99.90
2019-02-16T02:18:43.830Z,99.90
2019-02-16T02:21:14.698Z,99.90
2019-02-16T02:23:45.035Z,99.90
2019-02-16T02:26:15.238Z,99.90
2019-02-16T02:28:46.107Z,99.90
2019-02-16T02:31:16.559Z,99.90
2019-02-16T02:33:46.892Z,99.90
2019-02-16T02:36:17.013Z,99.90
2019-02-16T02:38:47.752Z,99.90
2019-02-16T02:41:19.016Z,99.90
2019-02-16T02:43:49.607Z,99.90
2019-02-16T02:46:21.325Z,99.90
2019-02-16T02:48:52.104Z,99.90
2019-02-16T02:51:22.417Z,99.90
2019-02-16T02:53:52.870Z,99.90
2019-02-16T02:56:23.287Z,99.90
2019-02-16T02:58:53.598Z,99.90
2019-02-16T03:01:24.222Z,99.90
2019-02-16T03:03:54.521Z,99.90
2019-02-16T03:06:25.184Z,99.90
2019-02-16T03:08:55.757Z,99.90
2019-02-16T03:11:26.143Z,99.90
2019-02-16T03:13:56.673Z,99.90
2019-02-16T03:16:27.237Z,99.90
2019-02-16T03:18:57.536Z,99.90
2019-02-16T03:21:29.417Z,99.90
2019-02-16T03:23:59.815Z,99.90
2019-02-16T03:27:02.374Z,99.90
2019-02-16T03:29:57.301Z,99.90
2019-02-16T03:33:24.334Z,99.90
2019-02-16T03:36:26.079Z,99.90
2019-02-16T03:39:19.445Z,99.90
2019-02-16T03:41:49.837Z,99.90
2019-02-16T03:44:22.861Z,99.90
2019-02-16T03:46:52.926Z,99.90
2019-02-16T03:49:23.884Z,99.90
2019-02-16T03:51:54.256Z,99.90
2019-02-16T03:54:24.509Z,99.90
2019-02-16T03:57:02.308Z,99.90
2019-02-16T03:59:32.653Z,99.90
2019-02-16T04:02:03.346Z,99.90
2019-02-16T04:04:34.185Z,99.90
2019-02-16T04:07:04.711Z,99.90
2019-02-16T04:09:35.053Z,99.90
2019-02-16T04:12:05.217Z,99.90
2019-02-16T04:14:35.724Z,99.90
2019-02-16T04:17:06.501Z,99.90
2019-02-16T04:19:38.613Z,99.90
2019-02-16T04:22:11.724Z,99.90
2019-02-16T04:24:42.438Z,99.90
2019-02-16T04:27:13.221Z,99.90
2019-02-16T04:29:43.638Z,99.90
2019-02-16T04:32:14.372Z,99.90
2019-02-16T04:34:44.624Z,99.90
2019-02-16T04:37:16.223Z,99.90
2019-02-16T04:39:46.752Z,99.90
2019-02-16T04:42:17.161Z,99.90
2019-02-16T04:44:48.981Z,99.90
2019-02-16T04:47:19.458Z,99.90
2019-02-16T04:49:49.853Z,99.90
2019-02-16T04:52:20.292Z,99.90
2019-02-16T04:54:51.527Z,99.90
2019-02-16T04:57:24.012Z,99.90
2019-02-16T04:59:55.584Z,99.90
2019-02-16T05:02:25.796Z,99.90
2019-02-16T05:04:56.682Z,99.90
2019-02-16T05:07:27.214Z,99.90
2019-02-16T05:09:57.494Z,99.90
2019-02-16T05:12:27.737Z,99.90
2019-02-16T05:14:58.202Z,99.90
2019-02-16T05:17:28.560Z,99.90
2019-02-16T05:19:59.162Z,99.90
2019-02-16T05:22:30.265Z,99.90
2019-02-16T05:25:00.511Z,99.90
2019-02-16T05:27:30.989Z,99.90
2019-02-16T05:30:02.095Z,99.90
2019-02-16T05:32:33.088Z,99.90
2019-02-16T05:35:03.517Z,99.90
2019-02-16T05:37:34.262Z,99.90
2019-02-16T05:40:04.587Z,99.90
2019-02-16T05:42:35.286Z,99.90
2019-02-16T05:45:05.924Z,99.90
2019-02-16T05:47:36.166Z,99.90
2019-02-16T05:50:06.456Z,99.90
2019-02-16T05:52:37.339Z,99.90
2019-02-16T05:55:07.850Z,99.90
2019-02-16T05:57:38.692Z,99.90
2019-02-16T06:00:11.634Z,99.90
2019-02-16T06:02:42.092Z,99.90
2019-02-16T06:05:12.338Z,99.90
2019-02-16T06:07:45.077Z,99.90
2019-02-16T06:10:15.551Z,99.90
2019-02-16T06:12:45.967Z,99.90
2019-02-16T06:15:16.399Z,99.90
2019-02-16T06:17:47.137Z,99.90
2019-02-16T06:20:17.679Z,99.90
2019-02-16T06:22:48.153Z,99.90
2019-02-16T06:25:18.959Z,99.90
2019-02-16T06:27:49.167Z,99.90
2019-02-16T06:30:22.212Z,99.90
2019-02-16T06:32:52.486Z,99.90
2019-02-16T06:35:51.237Z,99.90
2019-02-16T06:38:21.465Z,99.90
2019-02-16T06:40:51.749Z,99.90
2019-02-16T06:43:26.601Z,99.90
2019-02-16T06:45:57.354Z,99.90
2019-02-16T06:48:28.836Z,99.90
2019-02-16T06:50:59.889Z,99.90
2019-02-16T06:53:30.094Z,99.90
2019-02-16T06:56:10.910Z,99.90
2019-02-16T06:58:41.105Z,99.90
2019-02-16T07:01:14.253Z,99.90
2019-02-16T07:03:44.838Z,99.90
2019-02-16T07:06:16.012Z,99.90
2019-02-16T07:08:50.170Z,99.90
2019-02-16T07:11:20.621Z,99.90
2019-02-16T07:13:52.860Z,99.90
2019-02-16T07:16:58.901Z,99.90
2019-02-16T07:19:47.000Z,99.90
2019-02-16T07:22:17.280Z,99.90
2019-02-16T07:24:48.900Z,99.90
2019-02-16T07:27:20.743Z,99.90
2019-02-16T07:29:51.415Z,99.90
2019-02-16T07:32:24.909Z,99.90
2019-02-16T07:34:55.019Z,99.90
2019-02-16T07:37:25.753Z,99.90
2019-02-16T07:39:56.203Z,99.90
2019-02-16T07:42:26.790Z,99.90
2019-02-16T07:45:28.813Z,99.90
2019-02-16T07:48:14.841Z,99.90
2019-02-16T07:51:08.478Z,99.90
2019-02-16T07:54:05.515Z,99.90
2019-02-16T07:57:04.149Z,99.90
2019-02-16T07:59:56.462Z,99.90
2019-02-16T08:02:48.601Z,99.90
2019-02-16T08:05:52.565Z,99.90
2019-02-16T08:08:41.866Z,99.90
2019-02-16T08:11:25.093Z,99.90
2019-02-16T08:17:04.262Z,99.90
2019-02-16T08:20:02.017Z,99.90
2019-02-16T08:23:01.031Z,99.90
2019-02-16T08:26:00.830Z,99.90
2019-02-16T08:28:51.238Z,99.90
2019-02-16T08:31:44.487Z,99.90
2019-02-16T08:34:46.966Z,99.90
2019-02-16T08:37:30.242Z,96.80
2019-02-16T08:40:09.976Z,97.00
2019-02-16T08:43:08.530Z,91.90
2019-02-16T08:46:00.565Z,82.20
2019-02-16T08:48:45.839Z,85.80
2019-02-16T08:51:26.185Z,88.30
2019-02-16T08:54:13.825Z,80.20
2019-02-16T08:57:02.296Z,79.20
2019-02-16T08:59:57.424Z,66.20
2019-02-16T09:02:54.950Z,73.80
2019-02-16T09:05:48.955Z,67.90
2019-02-16T09:08:37.410Z,64.00
2019-02-16T09:11:29.104Z,67.70
2019-02-16T09:14:12.692Z,60.10
2019-02-16T09:16:53.264Z,64.20
2019-02-16T09:19:49.547Z,73.40
2019-02-16T09:22:33.998Z,75.60
2019-02-16T09:25:22.654Z,75.10
2019-02-16T09:28:13.294Z,76.30
2019-02-16T09:30:53.204Z,80.20
2019-02-16T09:33:42.254Z,80.10
2019-02-16T09:36:34.204Z,77.20
2019-02-16T09:39:26.562Z,82.90
2019-02-16T09:42:18.273Z,87.30
2019-02-16T09:44:59.913Z,89.10
2019-02-16T09:47:42.057Z,86.80
2019-02-16T09:50:38.557Z,88.30
2019-02-16T09:53:31.863Z,88.10
2019-02-16T09:56:30.555Z,87.20
2019-02-16T09:59:22.394Z,90.80
2019-02-16T10:02:07.046Z,88.60
2019-02-16T10:05:17.601Z,87.40
2019-02-16T10:08:12.057Z,85.00
2019-02-16T10:10:53.409Z,85.20
2019-02-16T10:13:42.560Z,80.90
2019-02-16T10:16:31.518Z,86.20
2019-02-16T10:19:07.813Z,90.50
2019-02-16T10:22:05.303Z,85.20
2019-02-16T10:25:09.465Z,82.50
2019-02-16T10:27:57.205Z,87.00
2019-02-16T10:30:35.994Z,87.30
2019-02-16T10:33:20.380Z,87.10
2019-02-16T10:36:12.617Z,85.90
2019-02-16T10:39:03.129Z,87.20
2019-02-16T10:41:57.470Z,86.70
2019-02-16T10:44:56.500Z,87.60
2019-02-16T10:47:48.330Z,86.50
2019-02-16T10:50:57.772Z,91.10
2019-02-16T10:54:00.905Z,85.60
2019-02-16T10:56:43.618Z,86.40
2019-02-16T10:59:23.341Z,89.10
2019-02-16T11:02:10.037Z,89.70
2019-02-16T11:04:57.411Z,86.40
2019-02-16T11:07:49.908Z,78.70
2019-02-16T11:10:34.228Z,83.70
2019-02-16T11:13:12.604Z,78.80
2019-02-16T11:16:03.647Z,77.60
2019-02-16T11:18:53.915Z,79.80
2019-02-16T11:21:54.275Z,71.70
2019-02-16T11:24:46.265Z,81.20
2019-02-16T11:27:33.835Z,79.60
2019-02-16T11:30:16.609Z,76.10
2019-02-16T11:33:07.904Z,72.10
2019-02-16T11:36:09.493Z,66.10
2019-02-16T11:38:56.651Z,60.40
2019-02-16T11:41:49.966Z,67.50
2019-02-16T11:44:32.180Z,70.00
2019-02-16T11:47:21.549Z,67.40
2019-02-16T11:50:12.359Z,70.30
2019-02-16T11:53:20.240Z,78.10
2019-02-16T11:56:01.352Z,68.80
2019-02-16T11:58:56.291Z,76.50
2019-02-16T12:01:37.424Z,71.30
2019-02-16T12:04:17.107Z,77.50
2019-02-16T12:07:02.275Z,71.10
2019-02-16T12:09:42.673Z,76.40
2019-02-16T12:12:46.026Z,74.90
2019-02-16T12:15:32.111Z,69.90
2019-02-16T12:18:18.332Z,74.00
2019-02-16T12:21:05.378Z,70.90
2019-02-16T12:23:55.590Z,76.50
2019-02-16T12:26:44.903Z,76.80
2019-02-16T12:29:34.087Z,76.50
2019-02-16T12:32:16.074Z,76.40
2019-02-16T12:35:19.941Z,72.80
2019-02-16T12:38:13.252Z,67.70
2019-02-16T12:41:09.034Z,66.70
2019-02-16T12:43:57.744Z,67.50
2019-02-16T12:46:58.379Z,66.90
2019-02-16T12:49:49.751Z,63.70
2019-02-16T12:52:47.131Z,68.30
2019-02-16T12:55:36.781Z,68.80
2019-02-16T12:58:24.011Z,67.60
2019-02-16T13:01:17.824Z,68.60
2019-02-16T13:04:21.218Z,67.10
2019-02-16T13:07:15.604Z,62.60
2019-02-16T13:10:24.039Z,66.40
2019-02-16T13:13:06.740Z,66.20
2019-02-16T13:15:57.328Z,62.20
2019-02-16T13:18:46.831Z,65.00
2019-02-16T13:21:34.524Z,67.30
2019-02-16T13:24:29.171Z,63.10
2019-02-16T13:27:18.514Z,60.80
2019-02-16T13:30:03.841Z,65.00
2019-02-16T13:33:11.267Z,61.00
2019-02-16T13:36:05.652Z,63.00
2019-02-16T13:38:58.181Z,65.00
2019-02-16T13:41:40.272Z,68.70
2019-02-16T13:44:44.946Z,64.40
2019-02-16T13:47:22.523Z,66.40
2019-02-16T13:50:11.811Z,68.40
2019-02-16T13:53:00.971Z,66.30
2019-02-16T13:55:42.193Z,69.00
2019-02-16T13:58:29.366Z,69.80
2019-02-16T14:01:45.159Z,70.70
2019-02-16T14:04:38.412Z,72.40
2019-02-16T14:07:23.161Z,74.40
2019-02-16T14:10:09.186Z,76.80
2019-02-16T14:12:59.159Z,74.20
2019-02-16T14:15:49.591Z,79.00
2019-02-16T14:18:22.247Z,75.00
2019-02-16T14:20:58.743Z,76.80
2019-02-16T14:23:35.346Z,78.20
2019-02-16T14:26:06.762Z,75.50
2019-02-16T14:28:37.945Z,77.50
2019-02-16T14:31:11.662Z,81.10
2019-02-16T14:33:44.756Z,80.20
2019-02-16T14:36:17.616Z,82.40
2019-02-16T14:39:21.302Z,81.20
2019-02-16T14:41:56.259Z,82.20
2019-02-16T14:44:31.209Z,82.80
2019-02-16T14:47:07.435Z,86.20
2019-02-16T14:49:38.721Z,84.30
2019-02-16T14:52:10.890Z,84.10
2019-02-16T14:54:45.865Z,84.70
2019-02-16T14:57:19.319Z,86.90
2019-02-16T14:59:51.966Z,83.40
2019-02-16T15:02:25.738Z,86.30
2019-02-16T15:04:56.646Z,84.10
2019-02-16T15:07:27.547Z,84.40
2019-02-16T15:10:03.423Z,83.90
2019-02-16T15:12:40.686Z,86.50
2019-02-16T15:15:35.589Z,84.80
2019-02-16T15:18:07.585Z,85.00
2019-02-16T15:20:44.177Z,86.50
2019-02-16T15:23:15.575Z,85.80
2019-02-16T15:25:49.206Z,87.60
2019-02-16T15:28:32.465Z,86.30
2019-02-16T15:31:04.520Z,89.50
2019-02-16T15:33:36.257Z,88.70
2019-02-16T15:36:10.265Z,87.20
2019-02-16T15:38:46.351Z,88.00
2019-02-16T15:41:21.668Z,88.70
2019-02-16T15:43:56.523Z,89.80
2019-02-16T15:46:28.058Z,90.40
2019-02-16T15:49:02.173Z,91.10
2019-02-16T15:51:34.109Z,91.40
2019-02-16T15:54:05.515Z,91.40
2019-02-16T15:56:39.600Z,91.20
2019-02-16T15:59:15.017Z,91.60
2019-02-16T16:01:45.865Z,92.50
2019-02-16T16:04:21.481Z,92.70
2019-02-16T16:06:52.805Z,93.10
2019-02-16T16:09:46.737Z,93.40
2019-02-16T16:12:31.509Z,93.30
2019-02-16T16:15:24.043Z,93.60
2019-02-16T16:18:06.032Z,94.10
2019-02-16T16:21:01.156Z,94.50
2019-02-16T16:24:07.104Z,95.20
2019-02-16T16:26:58.941Z,95.10
2019-02-16T16:29:47.068Z,95.30
2019-02-16T16:32:37.882Z,95.70
2019-02-16T16:35:39.836Z,96.00
2019-02-16T16:38:52.247Z,96.60
2019-02-16T16:41:33.307Z,96.80
2019-02-16T16:44:24.023Z,97.40
2019-02-16T16:47:16.877Z,97.10
2019-02-16T16:50:07.816Z,97.50
2019-02-16T16:52:57.540Z,98.20
2019-02-16T16:56:02.702Z,98.70
2019-02-16T16:58:50.253Z,99.20
2019-02-16T17:01:40.629Z,99.10
2019-02-16T17:04:29.044Z,99.50
2019-02-16T17:07:33.161Z,99.50
2019-02-16T17:10:22.943Z,99.60
2019-02-16T17:13:10.124Z,99.80
2019-02-16T17:16:04.965Z,99.90
2019-02-16T17:18:54.358Z,99.90
2019-02-16T17:22:09.511Z,99.90
2019-02-16T17:25:01.950Z,99.90
2019-02-16T17:27:54.407Z,99.90
2019-02-16T17:30:34.908Z,99.90
2019-02-16T17:33:39.305Z,99.90
2019-02-16T17:36:28.808Z,99.90
2019-02-16T17:39:29.402Z,99.90
2019-02-16T17:42:19.284Z,99.90
2019-02-16T17:45:22.174Z,99.90
2019-02-16T17:48:17.910Z,99.90
2019-02-16T17:51:00.108Z,99.90
2019-02-16T17:53:48.854Z,99.90
2019-02-16T17:56:36.804Z,99.90
2019-02-16T17:59:16.769Z,99.90
2019-02-16T18:02:08.573Z,99.90
2019-02-16T18:05:01.015Z,99.90
2019-02-16T18:07:59.045Z,99.90
2019-02-16T18:11:07.382Z,99.90
2019-02-16T18:13:44.646Z,99.90
2019-02-16T18:16:43.798Z,99.90
2019-02-16T18:19:32.961Z,99.90
2019-02-16T18:22:22.548Z,99.90
2019-02-16T18:25:05.977Z,99.90
2019-02-16T18:27:59.003Z,99.90
2019-02-16T18:30:48.199Z,99.90
2019-02-16T18:33:41.841Z,99.90
2019-02-16T18:36:21.956Z,99.90
2019-02-16T18:39:09.940Z,99.90
2019-02-16T18:42:00.726Z,99.90
2019-02-16T18:45:13.282Z,99.90
2019-02-16T18:47:58.821Z,99.90
2019-02-16T18:50:48.214Z,99.90
2019-02-16T18:53:28.834Z,99.90
2019-02-16T18:56:30.438Z,99.90
2019-02-16T18:59:19.754Z,99.90
2019-02-16T19:02:04.526Z,99.90
2019-02-16T19:04:52.133Z,99.90
2019-02-16T19:07:43.438Z,99.90
2019-02-16T19:10:38.857Z,99.90
2019-02-16T19:13:35.281Z,99.90
2019-02-16T19:16:23.339Z,99.90
2019-02-16T19:19:02.740Z,99.90
2019-02-16T19:21:57.573Z,99.90
2019-02-16T19:24:38.167Z,99.90
2019-02-16T19:27:27.307Z,99.90
2019-02-16T19:30:17.707Z,99.90
2019-02-16T19:33:10.352Z,99.90
2019-02-16T19:35:59.107Z,99.90
2019-02-16T19:38:45.726Z,99.90
2019-02-16T19:41:38.582Z,99.90
2019-02-16T19:44:34.085Z,99.90
2019-02-16T19:47:28.953Z,99.90
2019-02-16T19:50:33.726Z,99.90
2019-02-16T19:53:28.211Z,99.90
2019-02-16T19:56:26.388Z,99.90
2019-02-16T19:59:14.940Z,99.90
2019-02-16T20:02:13.529Z,99.90
2019-02-16T20:05:21.964Z,99.90
2019-02-16T20:08:16.643Z,99.90
2019-02-16T20:11:07.675Z,99.90
2019-02-16T20:13:56.571Z,99.90
2019-02-16T20:16:49.290Z,99.90
2019-02-16T20:19:38.434Z,99.90
2019-02-16T20:22:35.177Z,99.90
2019-02-16T20:25:31.306Z,99.90
2019-02-16T20:28:22.317Z,99.90
2019-02-16T20:31:11.485Z,99.90
2019-02-16T20:34:13.573Z,99.90
2019-02-16T20:36:55.238Z,99.90
2019-02-16T20:39:32.660Z,99.90
2019-02-16T20:42:20.676Z,99.90
2019-02-16T20:45:10.681Z,99.90
2019-02-16T20:47:46.806Z,99.90
2019-02-16T20:50:42.034Z,99.90
2019-02-16T20:53:30.176Z,99.90
2019-02-16T20:56:18.739Z,99.90
2019-02-16T20:59:07.803Z,99.90
2019-02-16T21:01:56.243Z,99.90
2019-02-16T21:04:48.692Z,99.90
2019-02-16T21:07:49.727Z,99.90
2019-02-16T21:10:40.335Z,99.90
2019-02-16T21:13:26.040Z,99.90
2019-02-16T21:16:25.371Z,99.90
2019-02-16T21:19:15.002Z,99.90
2019-02-16T21:22:08.769Z,99.90
2019-02-16T21:24:54.566Z,99.90
2019-02-16T21:27:57.689Z,99.90
2019-02-16T21:30:54.404Z,99.90
2019-02-16T21:33:48.095Z,99.90
2019-02-16T21:36:44.020Z,99.90
2019-02-16T21:39:23.667Z,99.90
2019-02-16T21:42:19.491Z,99.90
2019-02-16T21:45:11.709Z,99.90
2019-02-16T21:48:04.359Z,99.90
2019-02-16T21:50:53.345Z,99.90
2019-02-16T21:53:43.323Z,99.90
2019-02-16T21:56:38.722Z,99.90
2019-02-16T21:59:25.858Z,99.90
2019-02-16T22:02:16.194Z,99.90
2019-02-16T22:05:14.821Z,99.90
2019-02-16T22:08:05.834Z,99.90
2019-02-16T22:11:07.081Z,99.90
2019-02-16T22:13:37.962Z,99.90
2019-02-16T22:16:08.521Z,99.90
2019-02-16T22:18:39.473Z,99.90
2019-02-16T22:21:09.739Z,99.90
2019-02-16T22:23:41.224Z,99.90
2019-02-16T22:26:12.328Z,99.90
2019-02-16T22:28:45.506Z,99.90
2019-02-16T22:31:17.766Z,99.90
2019-02-16T22:33:47.590Z,99.90
2019-02-16T22:36:19.549Z,99.90
2019-02-16T22:38:50.040Z,99.90
2019-02-16T22:41:24.078Z,99.90
2019-02-16T22:43:58.888Z,99.90
2019-02-16T22:46:32.385Z,99.90
2019-02-16T22:49:02.520Z,99.90
2019-02-16T22:51:33.464Z,99.90
2019-02-16T22:54:05.369Z,99.90
2019-02-16T22:56:35.545Z,99.90
2019-02-16T22:59:05.818Z,99.90
2019-02-16T23:01:38.793Z,99.90
2019-02-16T23:04:12.194Z,99.90
2019-02-16T23:06:42.509Z,99.90
2019-02-16T23:09:32.076Z,99.90
2019-02-16T23:12:02.242Z,99.90
2019-02-16T23:14:32.455Z,99.90
2019-02-16T23:17:06.560Z,99.90
2019-02-16T23:19:36.901Z,99.90
2019-02-16T23:22:10.646Z,99.90
2019-02-16T23:24:41.634Z,99.90
2019-02-16T23:27:11.957Z,99.90
2019-02-16T23:29:42.253Z,99.90
2019-02-16T23:32:15.285Z,99.90
2019-02-16T23:34:45.694Z,99.90
2019-02-16T23:37:16.152Z,99.90
2019-02-16T23:39:49.326Z,99.90
2019-02-16T23:42:19.840Z,99.90
2019-02-16T23:44:51.614Z,99.90
2019-02-16T23:47:23.142Z,99.90
2019-02-16T23:49:53.501Z,99.90
2019-02-16T23:52:25.195Z,99.90
2019-02-16T23:54:56.165Z,99.90
2019-02-16T23:57:39.293Z,99.90
